createdAt,value
2023-04-08T00:01:26.310Z,0.40
2023-04-08T00:03:53.600Z,0.40
2023-04-08T00:06:20.912Z,0.40
2023-04-08T00:08:48.095Z,0.40
2023-04-08T00:11:15.429Z,0.40
2023-04-08T00:13:42.650Z,0.40
2023-04-08T00:16:09.587Z,0.40
2023-04-08T00:18:38.194Z,0.40
2023-04-08T00:21:05.357Z,0.40
2023-04-08T00:23:32.303Z,0.40
2023-04-08T00:25:59.315Z,0.40
2023-04-08T00:28:26.375Z,0.40
2023-04-08T00:30:54.485Z,0.40
2023-04-08T00:33:21.758Z,2.30
2023-04-08T00:35:49.598Z,0.50
2023-04-08T00:38:16.617Z,0.40
2023-04-08T00:40:43.970Z,0.40
2023-04-08T00:43:11.220Z,0.40
2023-04-08T00:45:38.344Z,0.40
2023-04-08T00:48:05.743Z,0.40
2023-04-08T00:50:33.075Z,0.50
2023-04-08T00:53:00.141Z,0.40
2023-04-08T00:55:27.108Z,0.40
2023-04-08T00:57:56.142Z,0.40
2023-04-08T01:00:23.656Z,0.40
2023-04-08T01:03:08.456Z,0.40
2023-04-08T01:06:23.665Z,0.40
2023-04-08T01:08:52.402Z,0.50
2023-04-08T01:11:20.461Z,0.40
2023-04-08T01:13:50.967Z,0.40
2023-04-08T01:16:19.134Z,0.40
2023-04-08T01:18:48.043Z,0.50
2023-04-08T01:21:18.432Z,0.40
2023-04-08T01:23:57.550Z,0.40
2023-04-08T01:26:26.692Z,0.40
2023-04-08T01:29:00.807Z,0.40
2023-04-08T01:31:28.467Z,0.40
2023-04-08T01:34:00.152Z,0.40
2023-04-08T01:36:28.721Z,0.40
2023-04-08T01:38:56.430Z,0.40
2023-04-08T01:41:23.861Z,0.40
2023-04-08T01:43:52.883Z,0.40
2023-04-08T01:46:21.924Z,0.40
2023-04-08T01:48:50.364Z,0.40
2023-04-08T01:51:18.335Z,0.40
2023-04-08T01:53:45.504Z,0.40
2023-04-08T01:56:14.138Z,0.50
2023-04-08T01:58:46.298Z,0.40
2023-04-08T02:01:18.302Z,0.60
2023-04-08T02:03:47.031Z,0.40
2023-04-08T02:06:14.576Z,0.40
2023-04-08T02:08:41.748Z,0.40
2023-04-08T02:11:08.780Z,0.40
2023-04-08T02:13:35.960Z,0.40
2023-04-08T02:16:21.572Z,0.40
2023-04-08T02:19:05.299Z,0.40
2023-04-08T02:21:39.206Z,0.40
2023-04-08T02:24:09.554Z,0.40
2023-04-08T02:26:38.890Z,0.40
2023-04-08T02:29:07.929Z,25.67
2023-04-08T02:31:35.520Z,0.40
2023-04-08T02:34:04.422Z,0.40
2023-04-08T02:36:34.331Z,0.40
2023-04-08T02:39:04.452Z,0.40
2023-04-08T02:41:31.650Z,0.40
2023-04-08T02:43:59.212Z,0.40
2023-04-08T02:46:26.111Z,0.40
2023-04-08T02:48:53.973Z,0.40
2023-04-08T02:51:21.085Z,0.40
2023-04-08T02:53:48.118Z,0.40
2023-04-08T02:56:15.277Z,0.40
2023-04-08T02:58:42.563Z,0.40
2023-04-08T03:01:09.694Z,1.37
2023-04-08T03:03:37.135Z,3.00
2023-04-08T03:06:05.477Z,0.40
2023-04-08T03:08:33.771Z,0.40
2023-04-08T03:11:00.883Z,0.40
2023-04-08T03:13:29.742Z,0.40
2023-04-08T03:15:56.758Z,0.40
2023-04-08T03:18:24.246Z,0.40
2023-04-08T03:20:51.210Z,0.40
2023-04-08T03:23:18.261Z,0.53
2023-04-08T03:25:45.344Z,0.40
2023-04-08T03:28:12.320Z,0.40
2023-04-08T03:30:39.294Z,0.60
2023-04-08T03:33:08.198Z,0.40
2023-04-08T03:35:35.638Z,0.50
2023-04-08T03:38:02.737Z,0.50
2023-04-08T03:40:29.945Z,0.40
2023-04-08T03:42:57.190Z,0.50
2023-04-08T03:45:24.289Z,0.40
2023-04-08T03:47:51.364Z,0.47
2023-04-08T03:50:19.405Z,0.40
2023-04-08T03:52:46.813Z,0.50
2023-04-08T03:55:13.805Z,0.40
2023-04-08T03:57:41.113Z,0.47
2023-04-08T04:00:09.025Z,0.40
2023-04-08T04:02:45.141Z,0.40
2023-04-08T04:05:12.164Z,0.40
2023-04-08T04:07:39.087Z,0.40
2023-04-08T04:10:06.631Z,0.40
2023-04-08T04:12:33.668Z,0.50
2023-04-08T04:15:00.716Z,0.43
2023-04-08T04:17:27.742Z,0.40
2023-04-08T04:19:54.749Z,0.40
2023-04-08T04:22:21.966Z,0.40
2023-04-08T04:24:49.500Z,13.93
2023-04-08T04:27:19.560Z,0.40
2023-04-08T04:29:46.592Z,0.40
2023-04-08T04:32:13.740Z,0.40
2023-04-08T04:34:41.024Z,0.40
2023-04-08T04:37:11.019Z,0.40
2023-04-08T04:39:38.089Z,0.40
2023-04-08T04:42:05.049Z,0.40
2023-04-08T04:44:32.048Z,0.40
2023-04-08T04:46:59.008Z,0.40
2023-04-08T04:49:26.240Z,0.40
2023-04-08T04:51:53.289Z,0.40
2023-04-08T04:54:20.579Z,0.40
2023-04-08T04:56:47.595Z,0.40
2023-04-08T04:59:14.620Z,0.40
2023-04-08T05:01:41.686Z,0.43
2023-04-08T05:04:08.775Z,0.40
2023-04-08T05:06:36.067Z,0.40
2023-04-08T05:09:03.231Z,0.40
2023-04-08T05:11:30.836Z,0.43
2023-04-08T05:13:57.783Z,0.40
2023-04-08T05:16:24.924Z,0.40
2023-04-08T05:18:52.146Z,0.50
2023-04-08T05:21:19.426Z,0.50
2023-04-08T05:23:46.392Z,0.40
2023-04-08T05:26:15.222Z,0.40
2023-04-08T05:28:43.299Z,0.40
2023-04-08T05:31:11.927Z,0.40
2023-04-08T05:33:38.860Z,0.40
2023-04-08T05:36:06.545Z,0.50
2023-04-08T05:38:34.662Z,2.60
2023-04-08T05:41:01.726Z,0.50
2023-04-08T05:43:28.733Z,0.40
2023-04-08T05:45:56.204Z,0.40
2023-04-08T05:48:23.301Z,0.43
2023-04-08T05:50:50.653Z,0.40
2023-04-08T05:53:17.776Z,10.17
2023-04-08T05:55:44.831Z,0.40
2023-04-08T05:58:11.831Z,0.40
2023-04-08T06:00:38.989Z,0.40
2023-04-08T06:03:06.338Z,0.40
2023-04-08T06:05:33.608Z,0.50
2023-04-08T06:08:00.702Z,0.40
2023-04-08T06:10:27.719Z,0.50
2023-04-08T06:12:54.834Z,0.40
2023-04-08T06:15:22.291Z,0.40
2023-04-08T06:17:49.309Z,0.40
2023-04-08T06:20:16.516Z,0.40
2023-04-08T06:22:43.419Z,0.40
2023-04-08T06:25:12.033Z,0.40
2023-04-08T06:27:39.075Z,0.40
2023-04-08T06:30:06.964Z,0.40
2023-04-08T06:32:33.936Z,0.40
2023-04-08T06:35:01.085Z,0.40
2023-04-08T06:37:28.070Z,0.50
2023-04-08T06:39:55.032Z,0.50
2023-04-08T06:42:23.167Z,0.40
2023-04-08T06:45:04.778Z,0.40
2023-04-08T06:47:31.805Z,0.40
2023-04-08T06:49:59.682Z,0.40
2023-04-08T06:52:27.347Z,0.40
2023-04-08T06:54:54.350Z,0.40
2023-04-08T06:57:21.437Z,0.40
2023-04-08T06:59:48.342Z,0.40
2023-04-08T07:02:15.979Z,0.40
2023-04-08T07:04:44.741Z,0.40
2023-04-08T07:07:13.310Z,0.50
2023-04-08T07:09:43.265Z,0.40
2023-04-08T07:12:10.314Z,0.40
2023-04-08T07:14:37.382Z,0.40
2023-04-08T07:17:04.442Z,0.40
2023-04-08T07:19:31.642Z,0.40
2023-04-08T07:21:58.699Z,0.87
2023-04-08T07:24:25.769Z,0.40
2023-04-08T07:26:52.999Z,0.40
2023-04-08T07:29:20.005Z,0.40
2023-04-08T07:31:47.058Z,0.40
2023-04-08T07:34:14.097Z,0.40
2023-04-08T07:36:41.360Z,0.40
2023-04-08T07:39:08.549Z,0.40
2023-04-08T07:41:35.672Z,0.40
2023-04-08T07:44:02.662Z,0.40
2023-04-08T07:46:29.727Z,0.40
2023-04-08T07:48:57.621Z,0.40
2023-04-08T07:51:24.653Z,0.40
2023-04-08T07:53:51.872Z,0.40
2023-04-08T07:56:18.876Z,0.40
2023-04-08T07:58:47.468Z,0.40
2023-04-08T08:01:19.908Z,0.50
2023-04-08T08:03:48.079Z,0.40
2023-04-08T08:06:15.523Z,0.40
2023-04-08T08:08:42.592Z,0.40
2023-04-08T08:11:09.737Z,0.40
2023-04-08T08:13:36.992Z,0.40
2023-04-08T08:16:04.103Z,0.40
2023-04-08T08:18:31.188Z,0.40
2023-04-08T08:21:00.423Z,0.40
2023-04-08T08:23:27.326Z,0.40
2023-04-08T08:26:01.876Z,0.40
2023-04-08T08:28:29.098Z,0.40
2023-04-08T08:30:56.598Z,0.70
2023-04-08T08:33:24.126Z,0.40
2023-04-08T08:35:51.948Z,0.40
2023-04-08T08:38:19.083Z,0.40
2023-04-08T08:40:46.289Z,0.40
2023-04-08T08:43:14.050Z,0.40
2023-04-08T08:45:42.202Z,0.50
2023-04-08T08:48:09.642Z,0.50
2023-04-08T08:50:36.983Z,0.40
2023-04-08T08:53:04.132Z,0.40
2023-04-08T08:55:50.906Z,0.40
2023-04-08T08:58:20.838Z,0.40
2023-04-08T09:00:47.792Z,0.40
2023-04-08T09:03:19.580Z,0.40
2023-04-08T09:05:55.581Z,0.40
2023-04-08T09:08:29.498Z,0.40
2023-04-08T09:11:10.398Z,0.67
2023-04-08T09:13:37.691Z,0.40
2023-04-08T09:16:07.222Z,0.40
2023-04-08T09:18:35.019Z,0.40
2023-04-08T09:21:03.181Z,0.40
2023-04-08T09:23:44.768Z,0.40
2023-04-08T09:26:24.227Z,0.40
2023-04-08T09:29:14.741Z,0.40
2023-04-08T09:32:11.869Z,0.40
2023-04-08T09:34:40.071Z,0.40
2023-04-08T09:37:07.412Z,0.40
2023-04-08T09:39:34.487Z,0.40
2023-04-08T09:42:05.668Z,0.40
2023-04-08T09:44:35.595Z,0.40
2023-04-08T09:47:12.772Z,0.40
2023-04-08T09:49:53.953Z,0.40
2023-04-08T09:52:54.977Z,0.40
2023-04-08T09:55:23.793Z,0.30
2023-04-08T09:58:04.372Z,0.40
2023-04-08T10:00:50.651Z,0.40
2023-04-08T10:03:29.198Z,0.40
2023-04-08T10:05:57.615Z,0.40
2023-04-08T10:08:26.272Z,0.40
2023-04-08T10:10:54.883Z,0.80
2023-04-08T10:13:22.681Z,0.40
2023-04-08T10:15:49.698Z,0.40
2023-04-08T10:18:19.373Z,0.30
2023-04-08T10:20:48.054Z,0.30
2023-04-08T10:23:19.142Z,0.40
2023-04-08T10:25:48.147Z,0.40
2023-04-08T10:28:15.870Z,0.23
2023-04-08T10:30:46.602Z,0.40
2023-04-08T10:33:15.529Z,0.50
2023-04-08T10:35:47.609Z,0.40
2023-04-08T10:38:16.235Z,0.40
2023-04-08T10:40:44.680Z,0.40
2023-04-08T10:43:13.427Z,0.40
2023-04-08T10:45:41.251Z,0.37
2023-04-08T10:48:29.211Z,0.50
2023-04-08T10:51:04.113Z,0.40
2023-04-08T10:53:36.145Z,0.40
2023-04-08T10:56:07.401Z,0.40
2023-04-08T10:58:36.619Z,0.40
2023-04-08T11:01:07.119Z,0.40
2023-04-08T11:03:35.692Z,0.40
2023-04-08T11:06:03.810Z,0.40
2023-04-08T11:08:32.904Z,0.30
2023-04-08T11:11:04.398Z,0.40
2023-04-08T11:13:31.864Z,0.40
2023-04-08T11:16:00.438Z,0.40
2023-04-08T11:18:28.575Z,0.40
2023-04-08T11:20:57.629Z,0.40
2023-04-08T11:23:26.483Z,0.30
2023-04-08T11:25:53.809Z,0.50
2023-04-08T11:28:21.390Z,0.30
2023-04-08T11:30:48.702Z,0.40
2023-04-08T11:33:15.740Z,0.40
2023-04-08T11:35:44.215Z,0.40
2023-04-08T11:38:11.976Z,0.20
2023-04-08T11:40:39.194Z,0.20
2023-04-08T11:43:12.049Z,0.30
2023-04-08T11:45:40.477Z,0.30
2023-04-08T11:48:11.749Z,0.20
2023-04-08T11:50:38.819Z,0.40
2023-04-08T11:53:25.136Z,0.40
2023-04-08T11:55:52.422Z,0.30
2023-04-08T11:58:19.407Z,0.40
2023-04-08T12:00:46.647Z,0.30
2023-04-08T12:03:14.189Z,0.40
2023-04-08T12:05:41.459Z,0.40
2023-04-08T12:08:08.569Z,0.30
2023-04-08T12:10:35.571Z,0.40
2023-04-08T12:13:02.539Z,0.30
2023-04-08T12:15:29.620Z,1.43
2023-04-08T12:17:56.989Z,0.40
2023-04-08T12:20:24.036Z,0.38
2023-04-08T12:22:50.984Z,0.40
2023-04-08T12:25:17.901Z,0.40
2023-04-08T12:27:45.928Z,0.40
2023-04-08T12:30:14.833Z,0.30
2023-04-08T12:32:45.911Z,0.40
2023-04-08T12:35:13.199Z,0.40
2023-04-08T12:37:40.168Z,0.30
2023-04-08T12:40:07.971Z,0.30
2023-04-08T12:42:35.068Z,0.28
2023-04-08T12:45:02.183Z,0.30
2023-04-08T12:47:29.231Z,0.40
2023-04-08T12:49:56.219Z,0.40
2023-04-08T12:52:24.194Z,0.20
2023-04-08T12:54:51.088Z,0.40
2023-04-08T12:57:18.085Z,0.40
2023-04-08T12:59:45.054Z,0.40
2023-04-08T13:02:12.013Z,0.40
2023-04-08T13:04:39.009Z,0.40
2023-04-08T13:07:07.631Z,0.30
2023-04-08T13:09:34.838Z,0.30
2023-04-08T13:12:02.002Z,0.40
2023-04-08T13:14:29.129Z,0.40
2023-04-08T13:16:56.136Z,0.40
2023-04-08T13:19:23.160Z,0.40
2023-04-08T13:21:50.347Z,0.40
2023-04-08T13:24:18.238Z,0.40
2023-04-08T13:26:45.412Z,0.40
2023-04-08T13:29:12.443Z,0.65
2023-04-08T13:31:39.724Z,0.30
2023-04-08T13:34:07.134Z,0.40
2023-04-08T13:36:36.824Z,0.40
2023-04-08T13:39:03.851Z,0.50
2023-04-08T13:41:30.817Z,0.33
2023-04-08T13:43:58.516Z,0.40
2023-04-08T13:46:25.540Z,0.40
2023-04-08T13:48:52.733Z,0.30
2023-04-08T13:51:19.910Z,0.40
2023-04-08T13:53:47.078Z,0.40
2023-04-08T13:56:14.105Z,1.77
2023-04-08T13:58:41.378Z,0.30
2023-04-08T14:01:08.652Z,0.40
2023-04-08T14:03:35.675Z,0.40
2023-04-08T14:06:02.717Z,0.40
2023-04-08T14:08:29.606Z,0.40
2023-04-08T14:11:00.620Z,0.30
2023-04-08T14:13:28.082Z,0.43
2023-04-08T14:15:58.185Z,0.90
2023-04-08T14:18:26.171Z,0.40
2023-04-08T14:20:53.059Z,0.40
2023-04-08T14:23:20.223Z,0.93
2023-04-08T14:25:47.526Z,0.30
2023-04-08T14:28:14.551Z,0.40
2023-04-08T14:30:41.778Z,0.40
2023-04-08T14:33:08.841Z,0.40
2023-04-08T14:35:36.759Z,0.40
2023-04-08T14:38:04.107Z,0.40
2023-04-08T14:40:31.066Z,0.40
2023-04-08T14:42:58.126Z,0.40
2023-04-08T14:45:25.204Z,0.40
2023-04-08T14:47:52.377Z,0.40
2023-04-08T14:50:20.325Z,0.40
2023-04-08T14:52:49.043Z,0.60
2023-04-08T14:55:17.402Z,0.40
2023-04-08T14:57:44.723Z,0.40
2023-04-08T15:00:12.271Z,0.40
2023-04-08T15:02:39.362Z,0.30
2023-04-08T15:05:07.541Z,0.40
2023-04-08T15:07:34.927Z,0.40
2023-04-08T15:10:02.205Z,0.40
2023-04-08T15:12:29.514Z,0.40
2023-04-08T15:14:56.652Z,0.40
2023-04-08T15:17:23.799Z,0.40
2023-04-08T15:19:51.190Z,0.40
2023-04-08T15:22:18.499Z,0.40
2023-04-08T15:24:47.924Z,0.50
2023-04-08T15:27:15.938Z,0.40
2023-04-08T15:29:43.019Z,0.40
2023-04-08T15:32:09.983Z,0.77
2023-04-08T15:34:36.894Z,0.40
2023-04-08T15:37:03.935Z,0.40
2023-04-08T15:39:31.438Z,0.40
2023-04-08T15:41:58.618Z,0.77
2023-04-08T15:44:25.669Z,0.43
2023-04-08T15:46:52.808Z,0.40
2023-04-08T15:49:19.881Z,0.40
2023-04-08T15:51:49.651Z,30.83
2023-04-08T15:54:20.188Z,28.37
2023-04-08T15:56:47.503Z,26.70
2023-04-08T15:59:14.554Z,31.10
2023-04-08T16:01:42.382Z,28.20
2023-04-08T16:04:09.689Z,28.43
2023-04-08T16:06:36.858Z,29.37
2023-04-08T16:09:04.060Z,29.70
2023-04-08T16:11:31.118Z,29.30
2023-04-08T16:13:58.109Z,33.03
2023-04-08T16:16:25.020Z,26.70
2023-04-08T16:18:55.230Z,27.43
2023-04-08T16:21:22.199Z,25.37
2023-04-08T16:23:49.517Z,25.40
2023-04-08T16:26:17.177Z,27.70
2023-04-08T16:28:44.345Z,27.03
2023-04-08T16:31:11.589Z,23.70
2023-04-08T16:33:38.718Z,25.53
2023-04-08T16:36:05.918Z,25.83
2023-04-08T16:38:33.150Z,26.27
2023-04-08T16:41:00.466Z,26.50
2023-04-08T16:43:27.960Z,24.13
2023-04-08T16:45:55.069Z,25.80
2023-04-08T16:48:23.166Z,24.37
2023-04-08T16:50:50.379Z,24.40
2023-04-08T16:53:17.308Z,23.37
2023-04-08T16:55:44.313Z,28.93
2023-04-08T16:58:11.258Z,30.70
2023-04-08T17:00:39.244Z,28.13
2023-04-08T17:03:06.621Z,28.90
2023-04-08T17:05:33.709Z,24.87
2023-04-08T17:08:01.686Z,26.47
2023-04-08T17:10:28.976Z,28.30
2023-04-08T17:12:57.849Z,31.03
2023-04-08T17:15:24.986Z,31.10
2023-04-08T17:17:52.025Z,27.67
2023-04-08T17:20:19.099Z,29.30
2023-04-08T17:22:46.632Z,30.63
2023-04-08T17:25:14.240Z,28.57
2023-04-08T17:27:41.394Z,28.47
2023-04-08T17:30:11.191Z,29.87
2023-04-08T17:32:38.760Z,30.90
2023-04-08T17:35:06.209Z,30.53
2023-04-08T17:37:33.314Z,31.13
2023-04-08T17:40:00.508Z,26.73
2023-04-08T17:42:27.576Z,31.07
2023-04-08T17:44:56.032Z,29.77
2023-04-08T17:47:23.143Z,28.37
2023-04-08T17:49:50.353Z,29.57
2023-04-08T17:52:17.981Z,28.13
2023-04-08T17:54:44.998Z,28.07
2023-04-08T17:57:13.052Z,27.87
2023-04-08T17:59:40.121Z,29.03
2023-04-08T18:02:07.284Z,28.53
2023-04-08T18:04:34.442Z,31.67
2023-04-08T18:07:03.932Z,30.87
2023-04-08T18:09:31.840Z,31.30
2023-04-08T18:11:58.892Z,30.47
2023-04-08T18:14:25.969Z,30.93
2023-04-08T18:16:52.959Z,26.13
2023-04-08T18:19:20.037Z,28.23
2023-04-08T18:21:47.056Z,29.57
2023-04-08T18:24:14.031Z,31.23
2023-04-08T18:26:41.465Z,30.80
2023-04-08T18:29:08.457Z,28.60
2023-04-08T18:31:35.828Z,33.50
2023-04-08T18:34:03.250Z,32.90
2023-04-08T18:36:30.742Z,31.13
2023-04-08T18:38:58.406Z,29.67
2023-04-08T18:41:26.381Z,35.00
2023-04-08T18:43:53.750Z,29.70
2023-04-08T18:46:20.856Z,32.03
2023-04-08T18:48:49.260Z,31.57
2023-04-08T18:51:19.360Z,29.27
2023-04-08T18:53:47.034Z,30.17
2023-04-08T18:56:17.669Z,28.07
2023-04-08T18:58:45.894Z,31.27
2023-04-08T19:01:16.613Z,31.03
2023-04-08T19:03:43.850Z,31.10
2023-04-08T19:06:13.010Z,33.03
2023-04-08T19:08:40.134Z,32.13
2023-04-08T19:11:07.290Z,31.90
2023-04-08T19:13:34.448Z,34.37
2023-04-08T19:16:01.564Z,36.57
2023-04-08T19:18:28.552Z,32.67
2023-04-08T19:20:55.558Z,31.03
2023-04-08T19:23:22.607Z,34.37
2023-04-08T19:25:49.793Z,33.20
2023-04-08T19:28:16.885Z,36.80
2023-04-08T19:30:43.928Z,36.20
2023-04-08T19:33:10.793Z,31.40
2023-04-08T19:35:38.313Z,34.53
2023-04-08T19:38:05.782Z,31.43
2023-04-08T19:40:32.821Z,31.63
2023-04-08T19:42:59.879Z,31.27
2023-04-08T19:45:27.128Z,30.53
2023-04-08T19:47:54.296Z,30.80
2023-04-08T19:50:22.312Z,32.00
2023-04-08T19:52:49.532Z,30.83
2023-04-08T19:55:19.610Z,30.17
2023-04-08T19:57:46.883Z,30.70
2023-04-08T20:00:14.464Z,29.63
2023-04-08T20:02:41.637Z,31.10
2023-04-08T20:05:14.895Z,29.73
2023-04-08T20:07:42.887Z,30.97
2023-04-08T20:10:10.373Z,28.70
2023-04-08T20:12:39.208Z,30.20
2023-04-08T20:15:09.361Z,28.83
2023-04-08T20:17:40.718Z,27.30
2023-04-08T20:20:08.253Z,30.63
2023-04-08T20:22:35.723Z,29.10
2023-04-08T20:25:04.112Z,29.10
2023-04-08T20:27:31.410Z,31.27
2023-04-08T20:29:58.362Z,27.47
2023-04-08T20:32:25.461Z,29.50
2023-04-08T20:34:52.517Z,30.43
2023-04-08T20:37:19.655Z,30.13
2023-04-08T20:39:46.765Z,31.53
2023-04-08T20:42:13.934Z,34.97
2023-04-08T20:44:41.548Z,33.37
2023-04-08T20:47:09.188Z,32.93
2023-04-08T20:49:40.256Z,31.53
2023-04-08T20:52:07.883Z,32.20
2023-04-08T20:54:35.087Z,28.60
2023-04-08T20:57:02.105Z,33.27
2023-04-08T20:59:29.137Z,29.37
2023-04-08T21:01:56.266Z,29.07
2023-04-08T21:04:24.524Z,34.33
2023-04-08T21:06:51.673Z,30.73
2023-04-08T21:09:18.816Z,31.77
2023-04-08T21:11:45.758Z,32.97
2023-04-08T21:14:12.667Z,31.30
2023-04-08T21:16:39.710Z,32.50
2023-04-08T21:19:06.805Z,33.13
2023-04-08T21:21:33.848Z,37.00
2023-04-08T21:24:00.850Z,40.53
2023-04-08T21:26:27.852Z,41.37
2023-04-08T21:28:54.819Z,40.50
2023-04-08T21:31:21.801Z,34.50
2023-04-08T21:33:48.845Z,40.83
2023-04-08T21:36:15.982Z,37.57
2023-04-08T21:38:43.314Z,39.23
2023-04-08T21:41:10.554Z,37.23
2023-04-08T21:43:38.546Z,38.73
2023-04-08T21:46:07.057Z,39.50
2023-04-08T21:48:34.211Z,36.47
2023-04-08T21:51:01.511Z,37.07
2023-04-08T21:53:31.031Z,38.90
2023-04-08T21:55:57.990Z,41.67
2023-04-08T21:58:26.859Z,42.80
2023-04-08T22:00:53.831Z,41.53
2023-04-08T22:03:20.887Z,46.47
2023-04-08T22:05:50.662Z,49.87
2023-04-08T22:08:17.684Z,43.47
2023-04-08T22:10:44.818Z,43.43
2023-04-08T22:13:12.284Z,42.53
2023-04-08T22:15:39.620Z,44.70
2023-04-08T22:18:07.155Z,41.93
2023-04-08T22:20:34.234Z,45.23
2023-04-08T22:23:01.239Z,39.10
2023-04-08T22:25:28.246Z,48.23
2023-04-08T22:27:55.246Z,45.30
2023-04-08T22:30:24.919Z,42.53
2023-04-08T22:32:51.913Z,44.23
2023-04-08T22:35:21.765Z,42.40
2023-04-08T22:37:48.906Z,41.37
2023-04-08T22:40:16.143Z,44.73
2023-04-08T22:42:43.078Z,50.50
2023-04-08T22:45:13.357Z,43.77
2023-04-08T22:47:40.475Z,56.57
2023-04-08T22:50:07.953Z,49.83
2023-04-08T22:52:35.046Z,48.63
2023-04-08T22:55:04.018Z,43.83
2023-04-08T22:57:33.356Z,37.17
2023-04-08T23:00:02.085Z,37.07
2023-04-08T23:02:31.235Z,41.83
2023-04-08T23:04:58.429Z,39.40
2023-04-08T23:07:25.475Z,41.13
2023-04-08T23:09:52.549Z,40.27
2023-04-08T23:12:19.520Z,39.13
2023-04-08T23:14:46.679Z,42.27
2023-04-08T23:17:13.870Z,39.17
2023-04-08T23:19:42.413Z,39.37
2023-04-08T23:22:09.446Z,39.10
2023-04-08T23:24:36.433Z,36.83
2023-04-08T23:27:03.437Z,39.63
2023-04-08T23:29:30.586Z,41.70
2023-04-08T23:31:57.891Z,38.60
2023-04-08T23:34:24.817Z,38.67
2023-04-08T23:36:51.788Z,40.97
2023-04-08T23:39:20.117Z,37.37
2023-04-08T23:41:47.181Z,38.17
2023-04-08T23:44:14.124Z,41.27
2023-04-08T23:46:41.166Z,41.27
2023-04-08T23:49:08.384Z,41.03
2023-04-08T23:51:38.879Z,42.97
2023-04-08T23:54:06.113Z,38.53
2023-04-08T23:56:33.271Z,39.70
2023-04-08T23:59:03.668Z,43.17
